Flight Track Log - Related Links

Times and Time Zones

All times are in EDT time to prevent confusion due to time zone crossing. See the EJA662 flight status page for this flight to view local times or setup timezone preferences in your user account.

Time Position Orientation Groundspeed Altitude Reporting Facility
EDT Latitude Longitude Course Direction KTS MPH feet Rate Location/Type
Thu 03:28:13 PM 41.2442 -95.9475 214° Southwest 247 284 5,100  Level Minneapolis Center
Thu 03:29:15 PM 41.2794 -96.0158 305° West 253 291 7,500 2,323 Climbing Minneapolis Center
Thu 03:30:17 PM 41.3153 -96.0992 300° West 255 293 9,900 2,323 Climbing Minneapolis Center
Thu 03:31:19 PM 41.3500 -96.2181 291° West 274 315 12,300 2,129 Climbing Minneapolis Center
Thu 03:32:21 PM 41.3797 -96.3161 292° West 283 326 14,300 1,935 Climbing Minneapolis Center
Thu 03:33:23 PM 41.4086 -96.4164 291° West 287 330 16,300 1,887 Climbing Minneapolis Center
Thu 03:34:25 PM 41.4431 -96.5169 295° West 295 339 18,200 1,872 Climbing Minneapolis Center
Thu 03:35:28 PM 41.4767 -96.6181 294° West 299 344 20,200 1,920 Climbing Minneapolis Center
Thu 03:36:30 PM 41.5211 -96.7133 302° West 300 345 22,200 1,306 Climbing Minneapolis Center
Thu 03:37:32 PM 41.5597 -96.8172 296° West 326 375 22,900 1,210 Climbing Minneapolis Center
Thu 03:38:34 PM 41.5825 -96.9561 282° West 321 369 24,700 1,597 Climbing Minneapolis Center
Thu 03:39:36 PM 41.6031 -97.0683 284° West 314 361 26,200 1,355 Climbing Minneapolis Center
Thu 03:40:38 PM 41.6228 -97.1806 283° West 311 358 27,500 1,065 Climbing Minneapolis Center
Thu 03:42:00 PM 41.7108 -97.3058 313° West  Level FlightAware Approximate
Thu 03:42:42 PM 41.6606 -97.4156 313° West 323 372 29,500  Level Minneapolis Center
Thu 03:43:45 PM 41.6792 -97.5350 282° West 328 377 30,500 1,065 Climbing Minneapolis Center
Thu 03:44:46 PM 41.7031 -97.6783 283° West 330 380 31,700 927 Climbing Minneapolis Center
Thu 03:45:48 PM 41.7208 -97.7722 284° West 327 376 32,400 1,008 Climbing Minneapolis Center
Thu 03:46:51 PM 41.7444 -97.9133 283° West 325 374 33,800 1,248 Climbing Minneapolis Center
Thu 03:47:53 PM 41.7633 -98.0269 283° West 317 365 35,000 1,065 Climbing Minneapolis Center
Thu 03:48:55 PM 41.7847 -98.1544 283° West 307 353 36,000 774 Climbing Minneapolis Center
Thu 03:49:57 PM 41.8031 -98.2675 282° West 308 354 36,600 774 Climbing Minneapolis Center
Thu 03:50:59 PM 41.8200 -98.3825 281° West 313 360 37,600 919 Climbing Minneapolis Center
Thu 03:52:01 PM 41.8358 -98.4953 281° West 311 358 38,500 919 Climbing Minneapolis Center
Thu 03:53:03 PM 41.8533 -98.6047 282° West 305 351 39,500 726 Climbing Minneapolis Center
Thu 03:54:05 PM 41.8694 -98.7114 281° West 298 343 40,000 242 Climbing Minneapolis Center
Thu 03:55:07 PM 41.8936 -98.8489 283° West 310 357 40,000  Level Minneapolis Center
Thu 03:56:09 PM 41.9128 -98.9706 282° West 329 379 40,000  Level Minneapolis Center
Thu 03:57:12 PM 41.9322 -99.0933 282° West 336 387 40,000  Level Minneapolis Center
Thu 03:57:59 PM 41.9506 -99.1906 284° West 340 391 40,000  Level Denver Center
Thu 03:59:01 PM 41.9767 -99.3081 287° West 334 384 40,000  Level Denver Center
Thu 04:00:03 PM 42.0033 -99.4275 287° West 333 383 40,000  Level Denver Center
Thu 04:01:05 PM 42.0297 -99.5458 287° West 333 383 40,000  Level Denver Center
Thu 04:02:07 PM 42.0747 -99.6842 294° West 337 388 40,000  Level Denver Center
Thu 04:03:09 PM 42.1281 -99.7939 303° West 337 388 40,000  Level Denver Center
Thu 04:04:11 PM 42.1769 -99.8958 303° West 338 389 40,000  Level Denver Center
Thu 04:05:13 PM 42.2344 -100.0150 303° West 340 391 40,000  Level Denver Center
Thu 04:06:16 PM 42.2822 -100.1164 303° West 336 387 40,000  Level Denver Center
Thu 04:07:33 PM 42.3492 -100.2594 302° West 338 389 40,000  Level Minneapolis Center
Thu 04:08:20 PM 42.3875 -100.3372 304° West 338 389 40,000  Level Denver Center
Thu 04:09:22 PM 42.4364 -100.4403 303° West 339 390 40,000  Level Denver Center
Thu 04:10:24 PM 42.4936 -100.5611 303° West 340 391 40,000  Level Denver Center
Thu 04:11:26 PM 42.5422 -100.6656 302° West 341 392 40,000  Level Denver Center
Thu 04:12:28 PM 42.5992 -100.7869 303° West 341 392 40,000  Level Denver Center
Thu 04:13:30 PM 42.6481 -100.8897 303° West 339 390 40,000  Level Denver Center
Thu 04:14:32 PM 42.7047 -101.0136 302° West 345 397 40,000  Level Denver Center
Thu 04:15:34 PM 42.7533 -101.1161 303° West 341 392 40,000  Level Denver Center
Thu 04:16:36 PM 42.8042 -101.2267 302° West 339 390 40,000  Level Denver Center
Thu 04:17:38 PM 42.8544 -101.3356 302° West 339 390 40,000  Level Denver Center
Thu 04:18:40 PM 42.9111 -101.4628 301° West 336 387 40,000  Level Denver Center
Thu 04:19:43 PM 42.9672 -101.5589 309° West 338 389 40,000  Level Denver Center
Thu 04:20:45 PM 43.0392 -101.6664 312° West 344 396 40,000  Level Denver Center
Thu 04:21:47 PM 43.0986 -101.7594 311° West 339 390 40,000  Level Denver Center
Thu 04:22:49 PM 43.1633 -101.8525 314° West 340 391 40,000  Level Denver Center
Thu 04:23:51 PM 43.2356 -101.9578 313° West 341 392 40,000  Level Denver Center
Thu 04:24:53 PM 43.2994 -102.0464 315° West 342 394 40,000  Level Denver Center
Thu 04:25:55 PM 43.3736 -102.1500 315° West 341 392 40,000  Level Denver Center
Thu 04:26:57 PM 43.4369 -102.2381 315° West 339 390 40,000  Level Denver Center
Thu 04:27:59 PM 43.5119 -102.3417 315° West 343 395 40,000  Level Denver Center
Thu 04:29:02 PM 43.5722 -102.4331 312° West 339 390 40,000  Level Denver Center
Thu 04:30:03 PM 43.6358 -102.5464 308° West 337 388 40,000  Level Denver Center
Thu 04:31:05 PM 43.6906 -102.6408 309° West 330 380 40,000  Level Denver Center
Thu 04:32:08 PM 43.7503 -102.7614 304° West 339 390 40,000  Level Denver Center
Thu 04:33:10 PM 43.7931 -102.8697 299° West 338 389 40,000  Level Denver Center
Thu 04:34:12 PM 43.8408 -102.9950 298° West 333 383 40,000  Level Denver Center
Thu 04:35:14 PM 43.8825 -103.1014 299° West 332 382 40,000  Level Denver Center
Thu 04:36:16 PM 43.9303 -103.2267 298° West 330 380 40,000  Level Denver Center
Thu 04:37:18 PM 43.9719 -103.3347 298° West 331 381 40,000  Level Denver Center
Thu 04:38:20 PM 44.0194 -103.4606 298° West 332 382 40,000  Level Denver Center
Thu 04:39:22 PM 44.0600 -103.5681 298° West 330 380 40,000  Level Denver Center
Thu 04:40:24 PM 44.1092 -103.6989 298° West 340 391 40,000  Level Denver Center
Thu 04:41:26 PM 44.1511 -103.8094 298° West 339 390 40,000  Level Denver Center
Thu 04:42:28 PM 44.1989 -103.9364 298° West 336 387 40,000  Level Denver Center
Thu 04:43:30 PM 44.2397 -104.0456 298° West 334 384 40,000  Level Denver Center
Thu 04:44:32 PM 44.2867 -104.1731 297° West 332 382 40,000  Level Denver Center
Thu 04:45:35 PM 44.3278 -104.2817 298° West 331 381 40,000  Level Denver Center
Thu 04:46:37 PM 44.3750 -104.4092 297° West 330 380 40,000  Level Denver Center
Thu 04:47:39 PM 44.4147 -104.5194 297° West 331 381 40,000  Level Denver Center
Thu 04:48:41 PM 44.4550 -104.6278 298° West 330 380 40,000  Level Denver Center
Thu 04:49:43 PM 44.5011 -104.7547 297° West 329 379 40,000  Level Denver Center
Thu 04:50:45 PM 44.5414 -104.8647 297° West 331 381 40,000  Level Denver Center
Thu 04:51:47 PM 44.5878 -104.9936 297° West 332 382 40,000  Level Denver Center
Thu 04:52:49 PM 44.6275 -105.1050 297° West 332 382 40,000  Level Denver Center
Thu 04:53:52 PM 44.6742 -105.2347 297° West 334 384 40,000  Level Denver Center
Thu 04:54:54 PM 44.7139 -105.3447 297° West 332 382 40,000  Level Denver Center
Thu 04:55:56 PM 44.7556 -105.4653 296° West 334 384 40,000  Level Denver Center
Thu 04:56:58 PM 44.7981 -105.5800 298° West 332 382 40,000  Level Denver Center
Thu 04:58:00 PM 44.8458 -105.7206 296° West 333 383 40,000  Level Denver Center
Thu 04:58:45 PM 44.8783 -105.7847 306° West 334 384 40,000  Level Salt Lake Center
Thu 04:59:47 PM 44.9578 -105.9069 313° West 348 400 40,000  Level Salt Lake Center
Thu 05:00:49 PM 45.0219 -106.0100 311° West 351 404 40,000  Level Salt Lake Center
Thu 05:01:51 PM 45.0861 -106.1139 311° West 351 404 40,000  Level Salt Lake Center
Thu 05:02:53 PM 45.1511 -106.2183 311° West 354 407 40,000  Level Salt Lake Center
Thu 05:03:55 PM 45.2156 -106.3217 312° West 352 405 40,000  Level Salt Lake Center
Thu 05:04:57 PM 45.2792 -106.4242 311° West 349 402 40,000  Level Salt Lake Center
Thu 05:05:59 PM 45.3572 -106.5472 312° West 350 403 40,000  Level Salt Lake Center
Thu 05:07:01 PM 45.4211 -106.6511 311° West 351 404 40,000  Level Salt Lake Center
Thu 05:08:03 PM 45.4844 -106.7558 311° West 350 403 40,000 -48 Level Salt Lake Center
Thu 05:09:05 PM 45.5247 -106.8711 297° West 333 383 39,900 -48 Descending Salt Lake Center
Thu 05:10:07 PM 45.5619 -106.9908 294° West 327 376 39,900  Level Salt Lake Center
Thu 05:11:09 PM 45.6100 -107.1369 295° West 334 384 39,900  Level Salt Lake Center
Thu 05:12:12 PM 45.6569 -107.2564 299° West 339 390 39,900 48 Level Salt Lake Center
Thu 05:13:14 PM 45.7014 -107.3744 298° West 340 391 40,000 48 Climbing Salt Lake Center
Thu 05:14:16 PM 45.7464 -107.4922 299° West 339 390 40,000 -48 Level Salt Lake Center
Thu 05:15:18 PM 45.7917 -107.6094 299° West 340 391 39,900 -48 Descending Salt Lake Center
Thu 05:16:20 PM 45.8369 -107.7272 299° West 340 391 39,900  Level Salt Lake Center
Thu 05:17:22 PM 45.8908 -107.8675 299° West 339 390 39,900  Level Salt Lake Center
Thu 05:18:24 PM 45.9358 -107.9881 298° West 342 394 39,900  Level Salt Lake Center
Thu 05:19:26 PM 45.9817 -108.1086 299° West 345 397 39,900  Level Salt Lake Center
Thu 05:20:28 PM 46.0283 -108.2311 299° West 350 403 39,900 48 Level Salt Lake Center
Thu 05:21:30 PM 46.0742 -108.3542 298° West 350 403 40,000  Climbing Salt Lake Center
Thu 05:22:32 PM 46.1292 -108.5028 298° West 352 405 39,900 -48 Descending Salt Lake Center
Thu 05:23:34 PM 46.1744 -108.6272 298° West 352 405 39,900  Level Salt Lake Center
Thu 05:24:36 PM 46.2192 -108.7528 297° West 353 406 39,900  Level Salt Lake Center
Thu 05:25:38 PM 46.2658 -108.8806 298° West 359 413 39,900 48 Level Salt Lake Center
Thu 05:26:40 PM 46.3133 -109.0092 298° West 363 418 40,000  Climbing Salt Lake Center
Thu 05:27:42 PM 46.3708 -109.1333 304° West 371 427 39,900 -48 Descending Salt Lake Center
Thu 05:28:44 PM 46.4461 -109.2731 308° West 369 425 39,900 48 Level Salt Lake Center
Thu 05:29:46 PM 46.5064 -109.3869 308° West 360 414 40,000 48 Climbing Salt Lake Center
Thu 05:30:48 PM 46.5664 -109.5050 307° West 363 418 40,000 -48 Level Salt Lake Center
Thu 05:31:50 PM 46.6278 -109.6219 307° West 364 419 39,900 -48 Descending Salt Lake Center
Thu 05:32:52 PM 46.6903 -109.7381 308° West 365 420 39,900  Level Salt Lake Center
Thu 05:33:54 PM 46.7539 -109.8544 309° West 365 420 39,900  Level Salt Lake Center
Thu 05:34:56 PM 46.8144 -109.9733 307° West 365 420 39,900  Level Salt Lake Center
Thu 05:35:58 PM 46.8811 -110.1219 303° West 365 420 39,900  Level Salt Lake Center
Thu 05:37:00 PM 46.9331 -110.2478 301° West 362 417 39,900  Level Salt Lake Center
Thu 05:38:03 PM 46.9858 -110.3744 301° West 364 419 39,900  Level Salt Lake Center
Thu 05:39:05 PM 47.0325 -110.5058 298° West 363 418 39,900  Level Salt Lake Center
Thu 05:40:07 PM 47.0731 -110.6406 294° West 361 415 39,900  Level Salt Lake Center
Thu 05:42:11 PM 47.1650 -110.9353 295° West 361 415 39,900  Level Salt Lake Center
Thu 05:43:13 PM 47.1975 -111.0719 289° West 356 410 39,900 242 Level Salt Lake Center
Thu 05:44:15 PM 47.2300 -111.2067 290° West 351 404 40,400 532 Climbing Salt Lake Center
Thu 05:45:17 PM 47.2444 -111.3433 279° West 338 389 41,000 290 Climbing Salt Lake Center
Thu 05:46:19 PM 47.2536 -111.4875 275° West 348 400 41,000  Level Salt Lake Center
Thu 05:47:21 PM 47.2633 -111.6331 276° West 354 407 41,000  Level Salt Lake Center
Thu 05:48:24 PM 47.2728 -111.7769 276° West 354 407 41,000  Level Salt Lake Center
Thu 05:49:25 PM 47.2839 -111.9525 275° West 356 410 41,000  Level Salt Lake Center
Thu 05:50:27 PM 47.2931 -112.0989 275° West 359 413 41,000  Level Salt Lake Center
Thu 05:51:29 PM 47.3014 -112.2478 275° West 362 417 41,000  Level Salt Lake Center
Thu 05:52:31 PM 47.3117 -112.3944 276° West 362 417 41,000  Level Salt Lake Center
Thu 05:53:33 PM 47.3194 -112.5381 275° West 355 409 41,000  Level Salt Lake Center
Thu 05:54:35 PM 47.3278 -112.6842 275° West 357 411 41,000  Level Salt Lake Center
Thu 05:55:37 PM 47.3375 -112.8583 275° West 355 409 41,000  Level Salt Lake Center
Thu 05:56:39 PM 47.3447 -112.9828 275° West 359 413 41,000  Level Salt Lake Center
Thu 05:57:41 PM 47.3536 -113.1642 274° West 362 417 41,000  Level Salt Lake Center
Thu 05:59:00 PM 47.3631 -113.3520 274° West  Level FlightAware Approximate
Thu 05:59:46 PM 47.3694 -113.4603 274° West 370 426 41,000  Level Salt Lake Center
Thu 06:00:48 PM 47.3775 -113.6122 275° West 371 427 41,000  Level Salt Lake Center
Thu 06:01:50 PM 47.3839 -113.7650 274° West 374 430 41,000  Level Salt Lake Center
Thu 06:02:52 PM 47.3917 -113.9200 274° West 378 435 41,000  Level Salt Lake Center
Thu 06:03:54 PM 47.3997 -114.1053 274° West 377 434 41,000  Level Salt Lake Center
Thu 06:04:56 PM 47.4058 -114.2603 273° West 378 435 41,000  Level Salt Lake Center
Thu 06:05:59 PM 47.4128 -114.4133 274° West 373 429 41,000  Level Salt Lake Center
Thu 06:07:06 PM 47.4194 -114.6000 273° West 377 434 41,000  Level Seattle Center
Thu 06:08:03 PM 47.4244 -114.7253 273° West 379 436 41,000  Level Salt Lake Center
Thu 06:09:05 PM 47.4308 -114.8817 274° West 380 437 41,000  Level Salt Lake Center
Thu 06:10:10 PM 47.4378 -115.0733 273° West 387 445 41,000  Level Seattle Center
Thu 06:11:11 PM 47.4431 -115.2325 273° West 389 448 41,000  Level Seattle Center
Thu 06:12:12 PM 47.4492 -115.3908 273° West 388 447 41,000  Level Seattle Center
Thu 06:13:13 PM 47.4542 -115.5511 273° West 392 451 41,000  Level Seattle Center
Thu 06:14:15 PM 47.4611 -115.7103 274° West 391 450 41,000  Level Seattle Center
Thu 06:15:16 PM 47.4708 -115.8717 275° West 392 451 41,000  Level Seattle Center
Thu 06:16:17 PM 47.4797 -116.0322 275° West 393 452 41,000  Level Seattle Center
Thu 06:17:18 PM 47.4889 -116.1953 275° West 397 457 41,000  Level Seattle Center
Thu 06:18:20 PM 47.4986 -116.3569 275° West 396 456 41,000  Level Seattle Center
Thu 06:19:21 PM 47.5100 -116.5531 275° West 399 459 41,000  Level Seattle Center
Thu 06:20:22 PM 47.5183 -116.7147 274° West 397 457 41,000  Level Seattle Center
Thu 06:21:23 PM 47.5281 -116.8786 275° West 398 458 41,000  Level Seattle Center
Thu 06:22:25 PM 47.5364 -117.0442 274° West 403 464 41,000  Level Seattle Center
Thu 06:23:26 PM 47.5442 -117.2078 274° West 402 463 41,000  Level Seattle Center
Thu 06:24:27 PM 47.5536 -117.3881 275° West 406 467 41,000  Level Seattle Center
Thu 06:25:28 PM 47.5614 -117.5533 274° West 403 464 41,000  Level Seattle Center
Thu 06:26:30 PM 47.5733 -117.7189 276° West 404 465 41,000  Level Seattle Center
Thu 06:27:31 PM 47.5889 -117.8853 278° West 409 471 41,000  Level Seattle Center
Thu 06:28:32 PM 47.6053 -118.0525 278° West 411 473 41,000  Level Seattle Center
Thu 06:29:34 PM 47.6206 -118.2194 278° West 411 473 41,000  Level Seattle Center
Thu 06:30:35 PM 47.6353 -118.3892 277° West 414 476 41,000  Level Seattle Center
Thu 06:31:36 PM 47.6511 -118.5581 278° West 416 479 41,000  Level Seattle Center
Thu 06:32:37 PM 47.6647 -118.7269 277° West 414 476 41,000  Level Seattle Center
Thu 06:33:39 PM 47.6822 -118.9308 277° West 415 478 41,000  Level Seattle Center
Thu 06:34:40 PM 47.6972 -119.1011 278° West 418 481 41,000  Level Seattle Center
Thu 06:35:41 PM 47.7117 -119.2703 277° West 417 480 41,000  Level Seattle Center
Thu 06:36:42 PM 47.7258 -119.4414 277° West 418 481 41,000 -393 Level Seattle Center
Thu 06:37:43 PM 47.7392 -119.6106 277° West 415 478 40,200 -1,366 Descending Seattle Center
Thu 06:38:45 PM 47.7517 -119.7817 276° West 418 481 38,200 -1,951 Descending Seattle Center
Thu 06:39:46 PM 47.7650 -119.9506 277° West 415 478 36,200 -1,623 Descending Seattle Center
Thu 06:40:47 PM 47.7775 -120.1139 277° West 404 465 34,900 -1,623 Descending Seattle Center
Thu 06:41:48 PM 47.7889 -120.2686 276° West 381 438 32,900 -1,951 Descending Seattle Center
Thu 06:42:50 PM 47.8003 -120.4264 276° West 384 442 30,900 -2,683 Descending Seattle Center
Thu 06:43:51 PM 47.8133 -120.6092 276° West 367 422 27,400 -3,639 Descending Seattle Center
Thu 06:44:52 PM 47.8236 -120.7536 276° West 353 406 23,500 -3,738 Descending Seattle Center
Thu 06:45:53 PM 47.8361 -120.8939 278° West 361 415 19,800 -3,738 Descending Seattle Center
Thu 06:46:54 PM 47.8436 -121.0375 275° West 347 399 15,900 -3,756 Descending Seattle Center
Thu 06:47:56 PM 47.8528 -121.1683 276° West 322 371 12,100 -2,390 Descending Seattle Center
Thu 06:48:57 PM 47.8611 -121.3142 275° West 305 351 11,000 -589 Descending Seattle Center
Thu 06:49:48 PM 47.8706 -121.4389 276° West 350 403 11,000  Level Seattle Center
Thu 06:50:59 PM 47.8789 -121.5908 275° West 336 387 11,000 -98 Level Seattle Center
Thu 06:51:50 PM 47.8697 -121.7111 264° West 315 362 10,800 -780 Descending Seattle Center
Thu 06:53:02 PM 47.8147 -121.7994 227° Southwest 251 289 9,400 -1,453 Descending Seattle Center
Thu 06:53:58 PM 47.7683 -121.8714 226° Southwest 233 268 7,700 -1,909 Descending Seattle Center
Thu 06:54:52 PM 47.7619 -121.9508 263° West 233 268 5,900 -1,934 Descending Seattle Center
Thu 06:55:59 PM 47.7583 -122.0586 267° West 223 257 3,800 -1,299 Descending Seattle Center
Thu 06:57:06 PM 47.7586 -122.1478 270° West 207 238 3,000 -375 Descending Seattle Center
Thu 06:58:07 PM 47.7594 -122.2361 271° West 201 231 3,000  Level Seattle Center
Thu 06:59:02 PM 47.7589 -122.3156 269° West 207 238 3,000 -155 Level Seattle Center
Thu 07:00:03 PM 47.7383 -122.3928 248° West 198 228 2,700 -491 Descending Seattle Center
Thu 07:00:52 PM 47.7017 -122.4064 194° South 180 207 2,100 -275 Descending Seattle Center
Thu 07:01:52 PM 47.6556 -122.3992 174° South 148 170 2,200 -50 Climbing Seattle Center
Thu 07:02:53 PM 47.6194 -122.3794 160° South 133 153 2,000 -443 Descending Seattle Center
Thu 07:03:54 PM 47.5911 -122.3556 150° Southeast 120 138 1,300 -703 Descending Seattle Center
Thu 07:05:01 PM 47.5594 -122.3272 149° Southeast 120 138 500 4,099 Descending Seattle Center
Thu 07:06:16 PM 47.5236 -122.2983 151° Southeast 120 138 11,000 8,400 Climbing Seattle Center

Login

Don't have an account? Register now (free) for customized features, flight alerts, and more!